Main page
METAR-TAF:

METAR-TAF

Airports :

Larnaca, Cyprus

Larnaca International Airport

latitude: 34-53N, longitude: 033-38E, elevation: 2 m

Current weather observation

The report was made 14 minutes ago, at 03:00 UTC
Wind 5 kt from the Northwest
Temperature 15°C
Humidity 88%
Pressure 1011 hPa
Visibility 10 km or more
no clouds below 1500 m and no cumulonimbus

METAR: LCLK 190300Z 32005KT CAVOK 15/13 Q1011 NOSIG

Time: 05:14 (03:14 UTC)

Forecast

The report was made 3 hours and 44 minutes ago, at 23:30 UTC
Forecast valid from 19 at 00 UTC to 19 at 24 UTC
Wind 8 kt from the North/Northwest
Visibility 10 km or more
Few clouds at a height of 3000 ft
Becoming
from 19 at 08 UTC to 19 at 12 UTC
Wind 16 kt from the Southwest
Becoming
from 19 at 17 UTC to 19 at 19 UTC
Wind 7 kt from the West/Northwest

TAF: LCLK 182330Z 1900/1924 34008KT 9999 FEW030 BECMG 1908/1912 22016KT BECMG 1917/1919 30007KT

Weather observations and forecasts of more than 4000 airports (METAR and TAF reports).

The available stations are represented by yellow and red dots on the map.

Hover mouse over dot to see the name of the station.

Then click to see weather observations and forecasts.

To change the map : click on the green buttons with a black cross to zoom in, on the green button with a dash to zoom out, or on the green arrows for adjacent maps.


METAR-TAF: